Port Hardy Airport
CYZT : rendu visible

Aérodrome :











RETROUVEZ-NOUS SUR...

 
LOGIN :

S'inscrire | Disclaimer

   EN    FR    IT 

 









Légende :    VFR   VFR Marginal   IFR   IFR Intensif   IFR Très Intensif
Visi : 
Plafond : 
>= 8 km
>= 3000ft
5 à 8 km
1000 à 3000 ft
1500m à 5 km
500 à 1000 ft
800 à 1500m
200 à 500 ft
< 800m
< 200 ft
Symboles :   Orages  Brouillard  Fortes neiges  Fortes précipitations  Vent > 20 kt






- Altitude de l'aérodrome : 71 ft
- Code IATA : YZT


CYZT - Port Hardy

DERNIER METAR :
  • 210800Z 13003KT 15SM BKN140 05/04 A3002 RMK AC7 SLP167

METARs EXPIRÉS :
  • 210700Z VRB02KT 15SM BKN150 05/04 A3003 RMK AC7 SLP172
  • 210600Z 21002KT 15SM SCT150 BKN180 04/04 A3005 RMK AC3AC4 SLP177
  • 210500Z VRB02KT 15SM SCT150 OVC180 05/04 A3006 RMK AC4AC4 SLP181

TAF TAF CYZT
Valide du 21 à 07h jusqu'au 21 à 19h UTC


210647Z 2107/2119 VRB03KT P6SM SCT150 BKN180 RMK NXT FCST BY 211300Z



MET'MAP, la Météo Aéronautique d'un coup d'oeil ! - Copyright ORBIFLY Décembre 2007 - Disclaimer

ORBIFLY MET'MAP TEAM :

Programmation & Développement : Alexandra Zaïnal
Conception & Développement : Baudouin d'Aumeries
Co-Programmation & Développement : Marc-Olivier Méhu
Soutien technique & logistique : Manuel Goepfert

Contact : metmap@orbifly.com




SOURCES & CREDITS :

   NOAA       Earth
Advisory